BOV708 SLVR-SAEZ
Flight info
| Callsign | BOV708 |
|---|---|
| Flight time | N/A |
| Altitude | 33000 |
| Route | KABOM UL404 PUPON/N0467F350 UL404 ISOPO UT672 MULTA UW24 SNT |
| Aircraft | B738/M-SDE2E3FGHIRWXY/LB1 |
Departure
| Time | 2026-05-08 04:46 |
|---|---|
| Airport | Viru Viru International Airport (SLVR) |
Arrival
| Time | N/A |
|---|---|
| Airport | Ezeiza International Airport - Ministro Pistarini (SAEZ) |
| Time | Latitude | Longitude | Altitude | Speed | Heading |
|---|---|---|---|---|---|
| 2026-05-08 04:26 | -17.64763 | -63.13973 | 1230 ft | 0 kts | 237° |
| 2026-05-08 04:35 | -17.64757 | -63.13964 | 1230 ft | 2 kts | 237° |
| 2026-05-08 04:36 | -17.64752 | -63.13956 | 1230 ft | 2 kts | 236° |
| 2026-05-08 04:36 | -17.64744 | -63.13943 | 1230 ft | 2 kts | 236° |
| 2026-05-08 04:36 | -17.64737 | -63.13931 | 1230 ft | 2 kts | 236° |
| 2026-05-08 04:36 | -17.64730 | -63.13920 | 1230 ft | 1 kts | 239° |
| 2026-05-08 04:37 | -17.64727 | -63.13914 | 1230 ft | 2 kts | 233° |
| 2026-05-08 04:37 | -17.64717 | -63.13905 | 1230 ft | 2 kts | 190° |
| 2026-05-08 04:37 | -17.64712 | -63.13904 | 1230 ft | 0 kts | 154° |
| 2026-05-08 04:39 | -17.64719 | -63.13900 | 1230 ft | 2 kts | 152° |
| 2026-05-08 04:39 | -17.64737 | -63.13889 | 1230 ft | 4 kts | 147° |
| 2026-05-08 04:39 | -17.64766 | -63.13869 | 1230 ft | 6 kts | 147° |
| 2026-05-08 04:40 | -17.64805 | -63.13843 | 1230 ft | 8 kts | 147° |
| 2026-05-08 04:40 | -17.64854 | -63.13809 | 1230 ft | 9 kts | 146° |
| 2026-05-08 04:40 | -17.64885 | -63.13756 | 1230 ft | 9 kts | 83° |
| 2026-05-08 04:40 | -17.64855 | -63.13700 | 1230 ft | 9 kts | 58° |
| 2026-05-08 04:41 | -17.64823 | -63.13647 | 1230 ft | 9 kts | 57° |
| 2026-05-08 04:41 | -17.64794 | -63.13588 | 1230 ft | 9 kts | 84° |
| 2026-05-08 04:41 | -17.64827 | -63.13536 | 1230 ft | 9 kts | 145° |
| 2026-05-08 04:41 | -17.64901 | -63.13485 | 1230 ft | 15 kts | 145° |
| 2026-05-08 04:42 | -17.65004 | -63.13417 | 1230 ft | 21 kts | 147° |
| 2026-05-08 04:42 | -17.65136 | -63.13328 | 1230 ft | 23 kts | 147° |
| 2026-05-08 04:42 | -17.65269 | -63.13239 | 1230 ft | 22 kts | 148° |
| 2026-05-08 04:42 | -17.65398 | -63.13153 | 1230 ft | 22 kts | 147° |
| 2026-05-08 04:43 | -17.65522 | -63.13068 | 1231 ft | 21 kts | 147° |
| 2026-05-08 04:43 | -17.65643 | -63.12986 | 1231 ft | 20 kts | 147° |
| 2026-05-08 04:43 | -17.65761 | -63.12907 | 1231 ft | 20 kts | 147° |
| 2026-05-08 04:43 | -17.65862 | -63.12834 | 1231 ft | 13 kts | 131° |
| 2026-05-08 04:44 | -17.65859 | -63.12747 | 1231 ft | 13 kts | 57° |
| 2026-05-08 04:44 | -17.65811 | -63.12671 | 1232 ft | 13 kts | 57° |
| 2026-05-08 04:44 | -17.65774 | -63.12667 | 1232 ft | 0 kts | 333° |
| 2026-05-08 04:45 | -17.65766 | -63.12671 | 1233 ft | 11 kts | 332° |
| 2026-05-08 04:45 | -17.65500 | -63.12849 | 1232 ft | 79 kts | 327° |
| 2026-05-08 04:45 | -17.64862 | -63.13279 | 1230 ft | 137 kts | 327° |
| 2026-05-08 04:46 | -17.63925 | -63.13907 | 1359 ft | 173 kts | 327° |
| 2026-05-08 04:46 | -17.62897 | -63.14599 | 2055 ft | 178 kts | 327° |
| 2026-05-08 04:46 | -17.61926 | -63.15231 | 3175 ft | 154 kts | 331° |
| 2026-05-08 04:46 | -17.60804 | -63.15446 | 3581 ft | 182 kts | 355° |
| 2026-05-08 04:47 | -17.59468 | -63.15309 | 3804 ft | 204 kts | 3° |
| 2026-05-08 04:47 | -17.58064 | -63.14774 | 4073 ft | 232 kts | 25° |
| 2026-05-08 04:47 | -17.56852 | -63.13560 | 4543 ft | 255 kts | 46° |
| 2026-05-08 04:47 | -17.56101 | -63.11739 | 4847 ft | 291 kts | 76° |
| 2026-05-08 04:48 | -17.56250 | -63.09562 | 5430 ft | 312 kts | 108° |
| 2026-05-08 04:48 | -17.57449 | -63.07679 | 6206 ft | 313 kts | 142° |
| 2026-05-08 04:48 | -17.59362 | -63.06664 | 6829 ft | 308 kts | 175° |
| 2026-05-08 04:48 | -17.61487 | -63.06566 | 7474 ft | 306 kts | 185° |
| 2026-05-08 04:49 | -17.63614 | -63.06573 | 8240 ft | 305 kts | 185° |
| 2026-05-08 04:49 | -17.65747 | -63.06588 | 8900 ft | 308 kts | 185° |
| 2026-05-08 04:49 | -17.67878 | -63.06604 | 9578 ft | 311 kts | 184° |
| 2026-05-08 04:49 | -17.70048 | -63.06619 | 10177 ft | 315 kts | 184° |
| 2026-05-08 04:50 | -17.72307 | -63.06635 | 10364 ft | 335 kts | 184° |
| 2026-05-08 04:50 | -17.74707 | -63.06651 | 10512 ft | 354 kts | 183° |
| 2026-05-08 04:50 | -17.77232 | -63.06666 | 10638 ft | 372 kts | 182° |
| 2026-05-08 04:50 | -17.79863 | -63.06325 | 10736 ft | 393 kts | 164° |
| 2026-05-08 04:51 | -17.82365 | -63.05074 | 11009 ft | 403 kts | 151° |
| 2026-05-08 04:51 | -17.84805 | -63.03591 | 11458 ft | 406 kts | 150° |
| 2026-05-08 04:51 | -17.87248 | -63.02081 | 11983 ft | 407 kts | 150° |
| 2026-05-08 04:51 | -17.89699 | -63.00572 | 12463 ft | 409 kts | 151° |
| 2026-05-08 04:52 | -17.92170 | -62.99064 | 12871 ft | 413 kts | 151° |
| 2026-05-08 04:52 | -17.94629 | -62.97575 | 13371 ft | 413 kts | 151° |
| 2026-05-08 04:52 | -17.97118 | -62.96074 | 13865 ft | 413 kts | 151° |
| 2026-05-08 04:52 | -17.99629 | -62.94563 | 14200 ft | 417 kts | 151° |
| 2026-05-08 04:53 | -18.02148 | -62.93048 | 14643 ft | 417 kts | 152° |
| 2026-05-08 04:53 | -18.04689 | -62.91519 | 14931 ft | 422 kts | 152° |
| 2026-05-08 04:53 | -18.07233 | -62.89987 | 15402 ft | 421 kts | 152° |
| 2026-05-08 04:53 | -18.09790 | -62.88458 | 15742 ft | 424 kts | 154° |
| 2026-05-08 04:54 | -18.12571 | -62.87455 | 16086 ft | 422 kts | 173° |
| 2026-05-08 04:54 | -18.15448 | -62.87344 | 16490 ft | 419 kts | 189° |
| 2026-05-08 04:54 | -18.18294 | -62.88004 | 16815 ft | 419 kts | 198° |
| 2026-05-08 04:54 | -18.21110 | -62.88819 | 17180 ft | 421 kts | 198° |
| 2026-05-08 04:55 | -18.23935 | -62.89658 | 17549 ft | 422 kts | 198° |
| 2026-05-08 04:55 | -18.26775 | -62.90498 | 17903 ft | 424 kts | 198° |
| 2026-05-08 04:55 | -18.29640 | -62.91336 | 18236 ft | 427 kts | 198° |
| 2026-05-08 04:55 | -18.32471 | -62.92154 | 18529 ft | 429 kts | 198° |
| 2026-05-08 04:56 | -18.35358 | -62.92979 | 18815 ft | 431 kts | 197° |
| 2026-05-08 04:56 | -18.38264 | -62.93803 | 19095 ft | 433 kts | 198° |
| 2026-05-08 04:56 | -18.41180 | -62.94628 | 19380 ft | 435 kts | 198° |
| 2026-05-08 04:56 | -18.44121 | -62.95461 | 19660 ft | 438 kts | 197° |
| 2026-05-08 04:57 | -18.47072 | -62.96295 | 19943 ft | 439 kts | 198° |
| 2026-05-08 04:57 | -18.50039 | -62.97137 | 20212 ft | 442 kts | 198° |
| 2026-05-08 04:57 | -18.53010 | -62.97979 | 20478 ft | 444 kts | 198° |
| 2026-05-08 04:57 | -18.56007 | -62.98830 | 20742 ft | 446 kts | 198° |
| 2026-05-08 04:58 | -18.59011 | -62.99684 | 20998 ft | 448 kts | 198° |
| 2026-05-08 04:58 | -18.61995 | -63.00531 | 21241 ft | 450 kts | 198° |
| 2026-05-08 04:58 | -18.65032 | -63.01394 | 21489 ft | 452 kts | 198° |
| 2026-05-08 04:58 | -18.68078 | -63.02258 | 21738 ft | 454 kts | 198° |
| 2026-05-08 04:59 | -18.71141 | -63.03129 | 22001 ft | 455 kts | 198° |
| 2026-05-08 04:59 | -18.74208 | -63.04000 | 22238 ft | 457 kts | 198° |
| 2026-05-08 04:59 | -18.77287 | -63.04876 | 22478 ft | 459 kts | 198° |
| 2026-05-08 04:59 | -18.80382 | -63.05758 | 22728 ft | 460 kts | 198° |
| 2026-05-08 05:00 | -18.83482 | -63.06639 | 22960 ft | 462 kts | 198° |
| 2026-05-08 05:00 | -18.86559 | -63.07515 | 23154 ft | 464 kts | 198° |
| 2026-05-08 05:00 | -18.89685 | -63.08406 | 23386 ft | 466 kts | 198° |
| 2026-05-08 05:00 | -18.92826 | -63.09302 | 23594 ft | 467 kts | 198° |
| 2026-05-08 05:01 | -18.95972 | -63.10177 | 23801 ft | 469 kts | 195° |
| 2026-05-08 05:01 | -18.99247 | -63.10508 | 23965 ft | 475 kts | 181° |
| 2026-05-08 05:01 | -19.02560 | -63.10388 | 24193 ft | 475 kts | 180° |
| 2026-05-08 05:01 | -19.05837 | -63.10220 | 24400 ft | 476 kts | 179° |
| 2026-05-08 05:02 | -19.09161 | -63.10044 | 24573 ft | 478 kts | 179° |
| 2026-05-08 05:02 | -19.12490 | -63.09883 | 24752 ft | 479 kts | 180° |
| 2026-05-08 05:02 | -19.15795 | -63.09740 | 24940 ft | 480 kts | 180° |
| 2026-05-08 05:02 | -19.19138 | -63.09610 | 25130 ft | 481 kts | 180° |
| 2026-05-08 05:03 | -19.22492 | -63.09490 | 25315 ft | 482 kts | 180° |
| 2026-05-08 05:03 | -19.25851 | -63.09374 | 25490 ft | 483 kts | 180° |
| 2026-05-08 05:03 | -19.29225 | -63.09260 | 25660 ft | 484 kts | 180° |
| 2026-05-08 05:03 | -19.32558 | -63.09148 | 25837 ft | 485 kts | 181° |
| 2026-05-08 05:04 | -19.35943 | -63.09033 | 26012 ft | 486 kts | 181° |
| 2026-05-08 05:04 | -19.39337 | -63.08916 | 26178 ft | 487 kts | 181° |
| 2026-05-08 05:04 | -19.42735 | -63.08799 | 26347 ft | 488 kts | 181° |
| 2026-05-08 05:04 | -19.46137 | -63.08682 | 26495 ft | 489 kts | 181° |
| 2026-05-08 05:05 | -19.49552 | -63.08564 | 26659 ft | 491 kts | 181° |
| 2026-05-08 05:05 | -19.52925 | -63.08447 | 26824 ft | 491 kts | 181° |
| 2026-05-08 05:05 | -19.56348 | -63.08328 | 26990 ft | 492 kts | 181° |
| 2026-05-08 05:05 | -19.59792 | -63.08209 | 27141 ft | 494 kts | 181° |
| 2026-05-08 05:06 | -19.63235 | -63.08089 | 27297 ft | 495 kts | 181° |
| 2026-05-08 05:06 | -19.66684 | -63.07970 | 27447 ft | 496 kts | 181° |
| 2026-05-08 05:06 | -19.70125 | -63.07850 | 27669 ft | 495 kts | 181° |
| 2026-05-08 05:06 | -19.73566 | -63.07730 | 27933 ft | 493 kts | 181° |
| 2026-05-08 05:07 | -19.76999 | -63.07610 | 28189 ft | 492 kts | 181° |
| 2026-05-08 05:07 | -19.80374 | -63.07492 | 28416 ft | 492 kts | 181° |
| 2026-05-08 05:07 | -19.83797 | -63.07373 | 28642 ft | 491 kts | 181° |
| 2026-05-08 05:07 | -19.87211 | -63.07255 | 28886 ft | 491 kts | 181° |
| 2026-05-08 05:08 | -19.90633 | -63.07136 | 29150 ft | 490 kts | 181° |
| 2026-05-08 05:08 | -19.94041 | -63.07017 | 29414 ft | 489 kts | 182° |
| 2026-05-08 05:08 | -19.97446 | -63.06898 | 29649 ft | 489 kts | 182° |
| 2026-05-08 05:08 | -20.00840 | -63.06780 | 29911 ft | 488 kts | 182° |
| 2026-05-08 05:09 | -20.04232 | -63.06662 | 30167 ft | 487 kts | 182° |
| 2026-05-08 05:09 | -20.07619 | -63.06543 | 30424 ft | 485 kts | 182° |
| 2026-05-08 05:09 | -20.10952 | -63.06427 | 30684 ft | 484 kts | 182° |
| 2026-05-08 05:09 | -20.14316 | -63.06309 | 30934 ft | 483 kts | 182° |
| 2026-05-08 05:10 | -20.17686 | -63.06192 | 31170 ft | 482 kts | 182° |
| 2026-05-08 05:10 | -20.24340 | -63.05959 | 31690 ft | 479 kts | 182° |
| 2026-05-08 05:10 | -20.27670 | -63.05843 | 31949 ft | 478 kts | 182° |
| 2026-05-08 05:11 | -20.30994 | -63.05727 | 32190 ft | 477 kts | 182° |
| 2026-05-08 05:11 | -20.34314 | -63.05611 | 32440 ft | 476 kts | 183° |
| 2026-05-08 05:11 | -20.37625 | -63.05495 | 32706 ft | 475 kts | 183° |
| 2026-05-08 05:11 | -20.40922 | -63.05379 | 32972 ft | 473 kts | 183° |
| 2026-05-08 05:12 | -20.44229 | -63.05264 | 32976 ft | 477 kts | 183° |
| 2026-05-08 05:12 | -20.50810 | -63.05036 | 32991 ft | 473 kts | 183° |
| 2026-05-08 05:13 | -20.57396 | -63.04813 | 33000 ft | 470 kts | 183° |
| 2026-05-08 05:13 | -20.63890 | -63.04596 | 33000 ft | 469 kts | 183° |
| 2026-05-08 05:14 | -20.70416 | -63.04377 | 33002 ft | 467 kts | 183° |
| 2026-05-08 05:14 | -20.76889 | -63.04159 | 33010 ft | 467 kts | 183° |
| 2026-05-08 05:15 | -20.83411 | -63.03939 | 33009 ft | 469 kts | 183° |
| 2026-05-08 05:15 | -20.89953 | -63.03719 | 33013 ft | 471 kts | 184° |
| 2026-05-08 05:16 | -20.96471 | -63.03498 | 33013 ft | 473 kts | 184° |
| 2026-05-08 05:16 | -21.03073 | -63.03275 | 33015 ft | 475 kts | 184° |
| 2026-05-08 05:17 | -21.09666 | -63.03051 | 33008 ft | 476 kts | 184° |
| 2026-05-08 05:17 | -21.16306 | -63.02825 | 33015 ft | 477 kts | 184° |
| 2026-05-08 05:18 | -21.22961 | -63.02599 | 33014 ft | 478 kts | 184° |
| 2026-05-08 05:18 | -21.29622 | -63.02372 | 33000 ft | 478 kts | 184° |
| 2026-05-08 05:19 | -21.36268 | -63.02147 | 33010 ft | 477 kts | 184° |
| 2026-05-08 05:19 | -21.42871 | -63.01926 | 33009 ft | 477 kts | 184° |
| 2026-05-08 05:20 | -21.49502 | -63.01703 | 33010 ft | 476 kts | 184° |
| 2026-05-08 05:20 | -21.56126 | -63.01481 | 33003 ft | 475 kts | 184° |
| 2026-05-08 05:21 | -21.62700 | -63.01259 | 33007 ft | 474 kts | 184° |
| 2026-05-08 05:21 | -21.69298 | -63.01037 | 33007 ft | 473 kts | 184° |
| 2026-05-08 05:22 | -21.75891 | -63.00815 | 33008 ft | 473 kts | 184° |
| 2026-05-08 05:22 | -21.82438 | -63.00594 | 33010 ft | 473 kts | 184° |
| 2026-05-08 05:23 | -21.89026 | -63.00371 | 33009 ft | 473 kts | 184° |
| 2026-05-08 05:23 | -21.95616 | -63.00149 | 33012 ft | 474 kts | 184° |
| 2026-05-08 05:24 | -22.01099 | -62.99893 | 33006 ft | 477 kts | 179° |
| 2026-05-08 05:24 | -22.08809 | -62.98647 | 33482 ft | 480 kts | 175° |
| 2026-05-08 05:24 | -22.12096 | -62.98028 | 33834 ft | 477 kts | 175° |
| 2026-05-08 05:25 | -22.14261 | -62.97621 | 34015 ft | 476 kts | 175° |
| 2026-05-08 05:25 | -22.17526 | -62.97019 | 34221 ft | 475 kts | 176° |
| 2026-05-08 05:25 | -22.20791 | -62.96433 | 34369 ft | 475 kts | 176° |
| 2026-05-08 05:25 | -22.24060 | -62.95858 | 34547 ft | 475 kts | 176° |
| 2026-05-08 05:26 | -22.27323 | -62.95292 | 34752 ft | 474 kts | 177° |
| 2026-05-08 05:26 | -22.30584 | -62.94729 | 34954 ft | 473 kts | 177° |
| 2026-05-08 05:26 | -22.33807 | -62.94175 | 34998 ft | 475 kts | 177° |
| 2026-05-08 05:27 | -22.40337 | -62.93052 | 35006 ft | 473 kts | 177° |
| 2026-05-08 05:27 | -22.46836 | -62.91929 | 35005 ft | 471 kts | 177° |
| 2026-05-08 05:28 | -22.53251 | -62.90818 | 35003 ft | 468 kts | 177° |
| 2026-05-08 05:28 | -22.56460 | -62.90262 | 35208 ft | 467 kts | 177° |
| 2026-05-08 05:28 | -22.59679 | -62.89705 | 35143 ft | 467 kts | 176° |
| 2026-05-08 05:29 | -22.66110 | -62.88592 | 35034 ft | 467 kts | 176° |
| 2026-05-08 05:29 | -22.72518 | -62.87479 | 35005 ft | 464 kts | 176° |
| 2026-05-08 05:30 | -22.78832 | -62.86381 | 34997 ft | 461 kts | 176° |
| 2026-05-08 05:30 | -22.85147 | -62.85283 | 34997 ft | 458 kts | 176° |
| 2026-05-08 05:31 | -22.91431 | -62.84190 | 34998 ft | 455 kts | 176° |
| 2026-05-08 05:31 | -22.97683 | -62.83102 | 35000 ft | 454 kts | 176° |
| 2026-05-08 05:32 | -23.03881 | -62.82023 | 35001 ft | 454 kts | 176° |
| 2026-05-08 05:32 | -23.10125 | -62.80934 | 35005 ft | 454 kts | 176° |
| 2026-05-08 05:33 | -23.16375 | -62.79844 | 35003 ft | 455 kts | 176° |
| 2026-05-08 05:33 | -23.22643 | -62.78748 | 35001 ft | 456 kts | 176° |
| 2026-05-08 05:34 | -23.28891 | -62.77655 | 34997 ft | 457 kts | 176° |
| 2026-05-08 05:34 | -23.35187 | -62.76552 | 34999 ft | 457 kts | 176° |
| 2026-05-08 05:35 | -23.41482 | -62.75448 | 35000 ft | 458 kts | 176° |
| 2026-05-08 05:35 | -23.47774 | -62.74344 | 35003 ft | 458 kts | 176° |
| 2026-05-08 05:36 | -23.54067 | -62.73238 | 34992 ft | 457 kts | 176° |
| 2026-05-08 05:36 | -23.60320 | -62.72139 | 35001 ft | 456 kts | 176° |
| 2026-05-08 05:37 | -23.66591 | -62.71034 | 34998 ft | 455 kts | 176° |
| 2026-05-08 05:37 | -23.72800 | -62.69940 | 34997 ft | 454 kts | 176° |
| 2026-05-08 05:38 | -23.79026 | -62.68843 | 34997 ft | 452 kts | 176° |
| 2026-05-08 05:38 | -23.85236 | -62.67746 | 34989 ft | 451 kts | 176° |
| 2026-05-08 05:39 | -23.91436 | -62.66651 | 34989 ft | 449 kts | 176° |
| 2026-05-08 05:39 | -23.97608 | -62.65560 | 34993 ft | 448 kts | 176° |
| 2026-05-08 05:40 | -24.03735 | -62.64475 | 34993 ft | 448 kts | 176° |
| 2026-05-08 05:40 | -24.09886 | -62.63386 | 34993 ft | 447 kts | 176° |
| 2026-05-08 05:41 | -24.16032 | -62.62296 | 34990 ft | 447 kts | 176° |
| 2026-05-08 05:41 | -24.22181 | -62.61205 | 34990 ft | 447 kts | 176° |
| 2026-05-08 05:42 | -24.28294 | -62.60118 | 34994 ft | 448 kts | 176° |
| 2026-05-08 05:42 | -24.34456 | -62.59022 | 34992 ft | 448 kts | 177° |
| 2026-05-08 05:43 | -24.40627 | -62.57924 | 35000 ft | 449 kts | 177° |
| 2026-05-08 05:43 | -24.46809 | -62.56822 | 34989 ft | 449 kts | 177° |
| 2026-05-08 05:44 | -24.52949 | -62.55726 | 34992 ft | 450 kts | 177° |
| 2026-05-08 05:44 | -24.59133 | -62.54622 | 34995 ft | 450 kts | 177° |
| 2026-05-08 05:45 | -24.65329 | -62.53514 | 34990 ft | 450 kts | 177° |
| 2026-05-08 05:45 | -24.71520 | -62.52406 | 34993 ft | 451 kts | 177° |
| 2026-05-08 05:46 | -24.77724 | -62.51296 | 34991 ft | 451 kts | 177° |
| 2026-05-08 05:46 | -24.83896 | -62.50192 | 34988 ft | 451 kts | 177° |
| 2026-05-08 05:47 | -24.90094 | -62.49081 | 34993 ft | 451 kts | 177° |
| 2026-05-08 05:47 | -24.96298 | -62.47968 | 34989 ft | 451 kts | 177° |
| 2026-05-08 05:48 | -25.02453 | -62.46862 | 34992 ft | 450 kts | 177° |
| 2026-05-08 05:48 | -25.08648 | -62.45748 | 34990 ft | 450 kts | 178° |
| 2026-05-08 05:49 | -25.14847 | -62.44633 | 34990 ft | 450 kts | 178° |
| 2026-05-08 05:49 | -25.20994 | -62.43525 | 34991 ft | 449 kts | 178° |
| 2026-05-08 05:50 | -25.27174 | -62.42411 | 34992 ft | 449 kts | 178° |
| 2026-05-08 05:50 | -25.33314 | -62.41302 | 34989 ft | 449 kts | 178° |
| 2026-05-08 05:51 | -25.39475 | -62.40187 | 34990 ft | 448 kts | 178° |
| 2026-05-08 05:51 | -25.45638 | -62.39071 | 34990 ft | 448 kts | 178° |
| 2026-05-08 05:52 | -25.51803 | -62.37953 | 34991 ft | 448 kts | 178° |
| 2026-05-08 05:52 | -25.57918 | -62.36843 | 34991 ft | 447 kts | 178° |
| 2026-05-08 05:53 | -25.64069 | -62.35725 | 34993 ft | 447 kts | 178° |
| 2026-05-08 05:53 | -25.70217 | -62.34607 | 34992 ft | 447 kts | 178° |
| 2026-05-08 05:54 | -25.76315 | -62.33497 | 34991 ft | 446 kts | 178° |
| 2026-05-08 05:54 | -25.82449 | -62.32378 | 34994 ft | 446 kts | 178° |
| 2026-05-08 05:55 | -25.88585 | -62.31259 | 34991 ft | 446 kts | 178° |
| 2026-05-08 05:55 | -25.94679 | -62.30145 | 34986 ft | 446 kts | 178° |
| 2026-05-08 05:56 | -26.00811 | -62.29024 | 34994 ft | 445 kts | 178° |
| 2026-05-08 05:56 | -26.06898 | -62.27910 | 34994 ft | 445 kts | 179° |
| 2026-05-08 05:57 | -26.13017 | -62.26789 | 34995 ft | 445 kts | 179° |
| 2026-05-08 05:57 | -26.19100 | -62.25673 | 34994 ft | 445 kts | 179° |
| 2026-05-08 05:58 | -26.25212 | -62.24551 | 34991 ft | 445 kts | 179° |
| 2026-05-08 05:58 | -26.31322 | -62.23428 | 34992 ft | 444 kts | 179° |
| 2026-05-08 05:59 | -26.37440 | -62.22302 | 34994 ft | 444 kts | 179° |
| 2026-05-08 05:59 | -26.43502 | -62.21185 | 34997 ft | 444 kts | 179° |
| 2026-05-08 06:00 | -26.49629 | -62.20055 | 34999 ft | 444 kts | 179° |
| 2026-05-08 06:00 | -26.55734 | -62.18928 | 35000 ft | 445 kts | 179° |
| 2026-05-08 06:01 | -26.61809 | -62.17805 | 35001 ft | 445 kts | 179° |
| 2026-05-08 06:01 | -26.67917 | -62.16675 | 35003 ft | 445 kts | 179° |
| 2026-05-08 06:02 | -26.74042 | -62.15541 | 35003 ft | 445 kts | 179° |
| 2026-05-08 06:02 | -26.80170 | -62.14404 | 34993 ft | 446 kts | 179° |
| 2026-05-08 06:03 | -26.86291 | -62.13268 | 34995 ft | 446 kts | 179° |
| 2026-05-08 06:03 | -26.92369 | -62.12139 | 34999 ft | 446 kts | 179° |
| 2026-05-08 06:04 | -26.98502 | -62.10998 | 35000 ft | 446 kts | 179° |
| 2026-05-08 06:04 | -27.04632 | -62.09855 | 34990 ft | 446 kts | 179° |
| 2026-05-08 06:05 | -27.10754 | -62.08714 | 34989 ft | 445 kts | 180° |
| 2026-05-08 06:05 | -27.16827 | -62.07580 | 34989 ft | 445 kts | 180° |
| 2026-05-08 06:06 | -27.22944 | -62.06437 | 34986 ft | 445 kts | 180° |
| 2026-05-08 06:06 | -27.29065 | -62.05293 | 34984 ft | 445 kts | 180° |
| 2026-05-08 06:07 | -27.35135 | -62.04156 | 34984 ft | 444 kts | 180° |
| 2026-05-08 06:07 | -27.41240 | -62.03012 | 34983 ft | 444 kts | 180° |
| 2026-05-08 06:08 | -27.47355 | -62.01864 | 34984 ft | 444 kts | 180° |
| 2026-05-08 06:08 | -27.53433 | -62.00722 | 34984 ft | 445 kts | 180° |
| 2026-05-08 06:09 | -27.59554 | -61.99571 | 34985 ft | 445 kts | 180° |
| 2026-05-08 06:09 | -27.65673 | -61.98418 | 34982 ft | 445 kts | 180° |
| 2026-05-08 06:10 | -27.71755 | -61.97272 | 34977 ft | 446 kts | 180° |
| 2026-05-08 06:10 | -27.77889 | -61.96114 | 34979 ft | 446 kts | 180° |
| 2026-05-08 06:11 | -27.84032 | -61.94953 | 34979 ft | 447 kts | 180° |
| 2026-05-08 06:11 | -27.90132 | -61.93799 | 34974 ft | 447 kts | 180° |
| 2026-05-08 06:12 | -27.96279 | -61.92634 | 34975 ft | 448 kts | 180° |
| 2026-05-08 06:12 | -28.01428 | -61.91658 | 34978 ft | 448 kts | 180° |
| 2026-05-08 06:13 | -28.07563 | -61.90493 | 34972 ft | 448 kts | 180° |
| 2026-05-08 06:13 | -28.13734 | -61.89320 | 34979 ft | 449 kts | 180° |
| 2026-05-08 06:14 | -28.19887 | -61.88149 | 34969 ft | 449 kts | 180° |
| 2026-05-08 06:14 | -28.26041 | -61.86977 | 34971 ft | 449 kts | 180° |
| 2026-05-08 06:15 | -28.32171 | -61.85808 | 34971 ft | 449 kts | 180° |
| 2026-05-08 06:15 | -28.38376 | -61.84623 | 34971 ft | 450 kts | 180° |
| 2026-05-08 06:16 | -28.44523 | -61.83447 | 34971 ft | 450 kts | 180° |
| 2026-05-08 06:16 | -28.50690 | -61.82285 | 34967 ft | 449 kts | 181° |
| 2026-05-08 06:17 | -28.59965 | -61.80911 | 34965 ft | 447 kts | 183° |
| 2026-05-08 06:17 | -28.66112 | -61.80032 | 34967 ft | 448 kts | 183° |
| 2026-05-08 06:18 | -28.72321 | -61.79116 | 34967 ft | 448 kts | 182° |
| 2026-05-08 06:18 | -28.78512 | -61.78189 | 34963 ft | 448 kts | 182° |
| 2026-05-08 06:19 | -28.84699 | -61.77260 | 34967 ft | 449 kts | 182° |
| 2026-05-08 06:19 | -28.90874 | -61.76332 | 34967 ft | 449 kts | 182° |
| 2026-05-08 06:20 | -28.97067 | -61.75402 | 34960 ft | 449 kts | 182° |
| 2026-05-08 06:20 | -29.03246 | -61.74472 | 34962 ft | 450 kts | 182° |
| 2026-05-08 06:21 | -29.09477 | -61.73533 | 34964 ft | 450 kts | 182° |
| 2026-05-08 06:21 | -29.15675 | -61.72598 | 34964 ft | 451 kts | 182° |
| 2026-05-08 06:22 | -29.21913 | -61.71656 | 34962 ft | 451 kts | 182° |
| 2026-05-08 06:22 | -29.28150 | -61.70712 | 34963 ft | 452 kts | 182° |
| 2026-05-08 06:23 | -29.34350 | -61.69774 | 34963 ft | 452 kts | 182° |
| 2026-05-08 06:23 | -29.40625 | -61.68825 | 34965 ft | 453 kts | 182° |
| 2026-05-08 06:24 | -29.46843 | -61.67884 | 34970 ft | 453 kts | 182° |
| 2026-05-08 06:24 | -29.53102 | -61.66935 | 34957 ft | 454 kts | 182° |
| 2026-05-08 06:25 | -29.59393 | -61.65979 | 34957 ft | 454 kts | 181° |
| 2026-05-08 06:25 | -29.65646 | -61.65029 | 34957 ft | 455 kts | 181° |
| 2026-05-08 06:26 | -29.71890 | -61.64078 | 34960 ft | 455 kts | 181° |
| 2026-05-08 06:26 | -29.78188 | -61.63118 | 34954 ft | 455 kts | 181° |
| 2026-05-08 06:27 | -29.84457 | -61.62161 | 34959 ft | 456 kts | 181° |
| 2026-05-08 06:27 | -29.90749 | -61.61199 | 34958 ft | 456 kts | 181° |
| 2026-05-08 06:28 | -29.97046 | -61.60235 | 34958 ft | 456 kts | 181° |
| 2026-05-08 06:28 | -30.03355 | -61.59269 | 34956 ft | 457 kts | 181° |
| 2026-05-08 06:29 | -30.09644 | -61.58304 | 34954 ft | 457 kts | 180° |
| 2026-05-08 06:29 | -30.15940 | -61.57337 | 34949 ft | 457 kts | 180° |
| 2026-05-08 06:30 | -30.22264 | -61.56364 | 34948 ft | 458 kts | 180° |
| 2026-05-08 06:30 | -30.28599 | -61.55388 | 34946 ft | 458 kts | 180° |
| 2026-05-08 06:31 | -30.34917 | -61.54413 | 34945 ft | 458 kts | 180° |
| 2026-05-08 06:31 | -30.41216 | -61.53440 | 34939 ft | 458 kts | 180° |
| 2026-05-08 06:32 | -30.47512 | -61.52467 | 34948 ft | 458 kts | 180° |
| 2026-05-08 06:32 | -30.53822 | -61.51489 | 34946 ft | 458 kts | 179° |
| 2026-05-08 06:33 | -30.60142 | -61.50501 | 34945 ft | 458 kts | 179° |
| 2026-05-08 06:33 | -30.66503 | -61.49503 | 34944 ft | 458 kts | 179° |
| 2026-05-08 06:34 | -30.72817 | -61.48516 | 34944 ft | 458 kts | 179° |
| 2026-05-08 06:34 | -30.79124 | -61.47535 | 34944 ft | 458 kts | 179° |
| 2026-05-08 06:35 | -30.85417 | -61.46556 | 34943 ft | 458 kts | 179° |
| 2026-05-08 06:35 | -30.91729 | -61.45572 | 34939 ft | 457 kts | 179° |
| 2026-05-08 06:36 | -30.98006 | -61.44591 | 34937 ft | 457 kts | 179° |
| 2026-05-08 06:36 | -31.04333 | -61.43602 | 34930 ft | 457 kts | 179° |
| 2026-05-08 06:37 | -31.10600 | -61.42620 | 34936 ft | 456 kts | 179° |
| 2026-05-08 06:37 | -31.16888 | -61.41634 | 34933 ft | 456 kts | 179° |
| 2026-05-08 06:38 | -31.23188 | -61.40644 | 34936 ft | 456 kts | 179° |
| 2026-05-08 06:38 | -31.29474 | -61.39655 | 34936 ft | 456 kts | 179° |
| 2026-05-08 06:39 | -31.35682 | -61.37844 | 34936 ft | 465 kts | 169° |
| 2026-05-08 06:39 | -31.41829 | -61.35457 | 34932 ft | 465 kts | 168° |
| 2026-05-08 06:40 | -31.47974 | -61.33059 | 34927 ft | 465 kts | 168° |
| 2026-05-08 06:40 | -31.54103 | -61.30709 | 34924 ft | 465 kts | 168° |
| 2026-05-08 06:41 | -31.60272 | -61.28365 | 34925 ft | 464 kts | 169° |
| 2026-05-08 06:41 | -31.66409 | -61.26035 | 34924 ft | 464 kts | 169° |
| 2026-05-08 06:42 | -31.72523 | -61.23709 | 34928 ft | 464 kts | 169° |
| 2026-05-08 06:42 | -31.78664 | -61.21368 | 34921 ft | 464 kts | 168° |
| 2026-05-08 06:43 | -31.84838 | -61.19011 | 34927 ft | 464 kts | 168° |
| 2026-05-08 06:43 | -31.90974 | -61.16665 | 34914 ft | 464 kts | 168° |
| 2026-05-08 06:44 | -31.97083 | -61.14326 | 34915 ft | 463 kts | 168° |
| 2026-05-08 06:44 | -32.03202 | -61.11980 | 34912 ft | 463 kts | 168° |
| 2026-05-08 06:45 | -32.09335 | -61.09625 | 34914 ft | 463 kts | 168° |
| 2026-05-08 06:45 | -32.15462 | -61.07269 | 34911 ft | 463 kts | 168° |
| 2026-05-08 06:46 | -32.21588 | -61.04910 | 34904 ft | 462 kts | 168° |
| 2026-05-08 06:46 | -32.27706 | -61.02552 | 34904 ft | 462 kts | 168° |
| 2026-05-08 06:47 | -32.33779 | -61.00207 | 34899 ft | 462 kts | 168° |
| 2026-05-08 06:47 | -32.39903 | -60.97839 | 34900 ft | 462 kts | 168° |
| 2026-05-08 06:48 | -32.46019 | -60.95471 | 34898 ft | 462 kts | 168° |
| 2026-05-08 06:48 | -32.52141 | -60.93097 | 34894 ft | 462 kts | 168° |
| 2026-05-08 06:49 | -32.58226 | -60.90734 | 34889 ft | 462 kts | 168° |
| 2026-05-08 06:49 | -32.64346 | -60.88354 | 34878 ft | 463 kts | 168° |
| 2026-05-08 06:50 | -32.70471 | -60.85968 | 34884 ft | 463 kts | 168° |
| 2026-05-08 06:50 | -32.76603 | -60.83576 | 34889 ft | 463 kts | 168° |
| 2026-05-08 06:51 | -32.82700 | -60.81194 | 34889 ft | 464 kts | 168° |
| 2026-05-08 06:51 | -32.88838 | -60.78792 | 34889 ft | 464 kts | 167° |
| 2026-05-08 06:52 | -32.94733 | -60.75433 | 34900 ft | 473 kts | 155° |
| 2026-05-08 06:52 | -33.00421 | -60.71422 | 34887 ft | 475 kts | 155° |
| 2026-05-08 06:53 | -33.06083 | -60.67420 | 34879 ft | 475 kts | 155° |
| 2026-05-08 06:53 | -33.11768 | -60.63459 | 34865 ft | 475 kts | 155° |
| 2026-05-08 06:54 | -33.17493 | -60.59494 | 34852 ft | 475 kts | 155° |
| 2026-05-08 06:54 | -33.23189 | -60.55547 | 34838 ft | 475 kts | 155° |
| 2026-05-08 06:55 | -33.28912 | -60.51572 | 34835 ft | 475 kts | 155° |
| 2026-05-08 06:55 | -33.34636 | -60.47588 | 34833 ft | 475 kts | 155° |
| 2026-05-08 06:56 | -33.40365 | -60.43595 | 34824 ft | 475 kts | 155° |
| 2026-05-08 06:56 | -33.43243 | -60.41589 | 34355 ft | 483 kts | 155° |
| 2026-05-08 06:56 | -33.46115 | -60.39584 | 33834 ft | 480 kts | 155° |
| 2026-05-08 06:57 | -33.48997 | -60.37567 | 33059 ft | 479 kts | 155° |
| 2026-05-08 06:57 | -33.51884 | -60.35547 | 32322 ft | 479 kts | 155° |
| 2026-05-08 06:57 | -33.54731 | -60.33553 | 31607 ft | 479 kts | 155° |
| 2026-05-08 06:57 | -33.57611 | -60.31536 | 30881 ft | 479 kts | 155° |
| 2026-05-08 06:58 | -33.60490 | -60.29518 | 30140 ft | 480 kts | 155° |
| 2026-05-08 06:58 | -33.63374 | -60.27494 | 29488 ft | 477 kts | 155° |
| 2026-05-08 06:58 | -33.66224 | -60.25490 | 28886 ft | 472 kts | 155° |
| 2026-05-08 06:58 | -33.68138 | -60.24144 | 28492 ft | 468 kts | 155° |
| 2026-05-08 06:59 | -33.70892 | -60.22206 | 27962 ft | 463 kts | 155° |
| 2026-05-08 06:59 | -33.73657 | -60.20260 | 27424 ft | 457 kts | 155° |
| 2026-05-08 06:59 | -33.77285 | -60.17707 | 26711 ft | 451 kts | 155° |
| 2026-05-08 06:59 | -33.79108 | -60.16422 | 26358 ft | 448 kts | 155° |
| 2026-05-08 07:00 | -33.81730 | -60.14489 | 25841 ft | 447 kts | 150° |
| 2026-05-08 07:00 | -33.84129 | -60.12094 | 25321 ft | 449 kts | 141° |
| 2026-05-08 07:00 | -33.86198 | -60.09283 | 24905 ft | 449 kts | 131° |
| 2026-05-08 07:00 | -33.87966 | -60.06192 | 24428 ft | 447 kts | 128° |
| 2026-05-08 07:01 | -33.89672 | -60.03071 | 23907 ft | 445 kts | 128° |
| 2026-05-08 07:01 | -33.91361 | -59.99957 | 23386 ft | 443 kts | 128° |
| 2026-05-08 07:01 | -33.93046 | -59.96864 | 22786 ft | 440 kts | 128° |
| 2026-05-08 07:01 | -33.94731 | -59.93797 | 22245 ft | 436 kts | 129° |
| 2026-05-08 07:02 | -33.96407 | -59.90767 | 21716 ft | 432 kts | 129° |
| 2026-05-08 07:02 | -33.98050 | -59.87808 | 21218 ft | 429 kts | 129° |
| 2026-05-08 07:02 | -33.99710 | -59.84825 | 20713 ft | 425 kts | 129° |
| 2026-05-08 07:02 | -34.01355 | -59.81869 | 20215 ft | 421 kts | 129° |
| 2026-05-08 07:03 | -34.02986 | -59.78937 | 19719 ft | 418 kts | 129° |
| 2026-05-08 07:03 | -34.04579 | -59.76070 | 19241 ft | 415 kts | 128° |
| 2026-05-08 07:03 | -34.06180 | -59.73184 | 18753 ft | 412 kts | 128° |
| 2026-05-08 07:03 | -34.07773 | -59.70313 | 18257 ft | 410 kts | 128° |
| 2026-05-08 07:04 | -34.09356 | -59.67456 | 17719 ft | 408 kts | 128° |
| 2026-05-08 07:04 | -34.10927 | -59.64617 | 17177 ft | 404 kts | 128° |
| 2026-05-08 07:04 | -34.12478 | -59.61812 | 16682 ft | 400 kts | 127° |
| 2026-05-08 07:04 | -34.14017 | -59.59025 | 16195 ft | 396 kts | 127° |
| 2026-05-08 07:05 | -34.15514 | -59.56313 | 15789 ft | 390 kts | 127° |
| 2026-05-08 07:05 | -34.16999 | -59.53620 | 15547 ft | 381 kts | 127° |
| 2026-05-08 07:05 | -34.18458 | -59.50974 | 15292 ft | 375 kts | 127° |
| 2026-05-08 07:05 | -34.19895 | -59.48367 | 15038 ft | 373 kts | 127° |
| 2026-05-08 07:06 | -34.21345 | -59.45737 | 14799 ft | 377 kts | 127° |
| 2026-05-08 07:06 | -34.22800 | -59.43083 | 14556 ft | 379 kts | 126° |
| 2026-05-08 07:06 | -34.24225 | -59.40416 | 14306 ft | 376 kts | 126° |
| 2026-05-08 07:06 | -34.25625 | -59.37761 | 14061 ft | 373 kts | 126° |
| 2026-05-08 07:07 | -34.27013 | -59.35118 | 13814 ft | 370 kts | 126° |
| 2026-05-08 07:07 | -34.28374 | -59.32528 | 13579 ft | 368 kts | 126° |
| 2026-05-08 07:07 | -34.29743 | -59.29923 | 13316 ft | 366 kts | 126° |
| 2026-05-08 07:07 | -34.31112 | -59.27323 | 13038 ft | 365 kts | 126° |
| 2026-05-08 07:08 | -34.32473 | -59.24735 | 12775 ft | 365 kts | 126° |
| 2026-05-08 07:08 | -34.33837 | -59.22144 | 12513 ft | 364 kts | 126° |
| 2026-05-08 07:08 | -34.35200 | -59.19553 | 12247 ft | 365 kts | 126° |
| 2026-05-08 07:08 | -34.36561 | -59.16965 | 11987 ft | 365 kts | 126° |
| 2026-05-08 07:09 | -34.37926 | -59.14367 | 11728 ft | 365 kts | 126° |
| 2026-05-08 07:09 | -34.39287 | -59.11775 | 11467 ft | 365 kts | 126° |
| 2026-05-08 07:09 | -34.40627 | -59.09218 | 11215 ft | 364 kts | 126° |
| 2026-05-08 07:09 | -34.41989 | -59.06621 | 10958 ft | 363 kts | 126° |
| 2026-05-08 07:10 | -34.43342 | -59.04036 | 10719 ft | 362 kts | 126° |
| 2026-05-08 07:10 | -34.44688 | -59.01463 | 10462 ft | 361 kts | 126° |
| 2026-05-08 07:10 | -34.46031 | -58.98895 | 10209 ft | 359 kts | 126° |
| 2026-05-08 07:10 | -34.47365 | -58.96341 | 9966 ft | 358 kts | 126° |
| 2026-05-08 07:11 | -34.48691 | -58.93803 | 9725 ft | 356 kts | 126° |
| 2026-05-08 07:11 | -34.50012 | -58.91272 | 9464 ft | 351 kts | 126° |
| 2026-05-08 07:11 | -34.51279 | -58.88837 | 9170 ft | 340 kts | 126° |
| 2026-05-08 07:11 | -34.52523 | -58.86446 | 8890 ft | 331 kts | 126° |